Time;durP1;ratioP1;P1;durP2;ratioP2;P2;SDS_P1;SDS_P2;PMS_P1;PMS_P2;Temp;Humidity;BMP_temperature;BMP_pressure;BME280_temperature;BME280_humidity;BME280_pressure;Samples;Min_cycle;Max_cycle;Signal;HPM_P1;HPM_P2
2020/12/09 00:00:18;;;;;;;6.68;3.28;;;;;;;5.25;71.28;99090.13;4917579;29;20513;-75
2020/12/09 00:02:46;;;;;;;5.70;3.13;;;;;;;4.68;71.18;99021.19;4917426;29;20435;-75
2020/12/09 00:05:14;;;;;;;5.57;3.17;;;;;;;4.79;71.40;99027.22;4916594;29;20079;-75
2020/12/09 00:07:41;;;;;;;5.38;2.95;;;;;;;5.19;71.21;99100.16;4917604;29;20044;-75
2020/12/09 00:10:09;;;;;;;6.70;2.95;;;;;;;4.65;71.41;99018.63;4916408;29;20052;-75
2020/12/09 00:12:37;;;;;;;7.60;3.42;;;;;;;4.60;71.25;99007.63;4917373;29;20050;-75
2020/12/09 00:15:06;;;;;;;6.45;2.83;;;;;;;4.44;71.62;98986.38;4916352;29;20049;-75
2020/12/09 00:17:34;;;;;;;7.68;3.33;;;;;;;5.06;72.12;99100.84;4916254;29;20071;-75
2020/12/09 00:20:02;;;;;;;6.22;3.30;;;;;;;5.00;71.54;99094.88;4916025;29;20132;-75
2020/12/09 00:22:31;;;;;;;7.15;3.08;;;;;;;4.93;72.32;99106.59;4917335;29;20063;-75
2020/12/09 00:24:58;;;;;;;6.03;2.65;;;;;;;4.64;72.50;99042.19;4916911;29;20056;-75
2020/12/09 00:27:27;;;;;;;5.85;2.92;;;;;;;4.96;72.36;99085.56;4916127;29;20406;-75
2020/12/09 00:29:55;;;;;;;6.63;2.78;;;;;;;5.07;71.91;99094.97;4915943;29;20529;-75
2020/12/09 00:32:23;;;;;;;6.35;3.15;;;;;;;4.78;72.32;99044.88;4917192;29;20049;-75
2020/12/09 00:34:51;;;;;;;6.47;2.70;;;;;;;5.07;72.42;99097.50;4917331;29;20529;-75
2020/12/09 00:37:19;;;;;;;4.60;2.40;;;;;;;5.35;70.94;99061.53;4915928;29;20054;-75
2020/12/09 00:39:48;;;;;;;3.55;2.08;;;;;;;5.50;70.29;99080.22;4900323;29;20048;-75
2020/12/09 00:42:16;;;;;;;5.13;2.80;;;;;;;5.27;70.94;99065.69;4900367;29;20048;-75
2020/12/09 00:44:45;;;;;;;6.95;3.38;;;;;;;5.25;71.44;99090.13;4915940;29;20375;-75
2020/12/09 00:47:13;;;;;;;6.43;2.80;;;;;;;5.21;71.47;99093.44;4916171;29;20103;-75
2020/12/09 00:52:25;;;;;;;5.15;2.05;;;;;;;5.54;70.34;99102.22;4915962;29;20052;-75
2020/12/09 00:54:55;;;;;;;4.65;2.00;;;;;;;5.21;70.37;99026.81;4915920;29;20048;-75
2020/12/09 00:57:23;;;;;;;4.38;1.92;;;;;;;5.09;70.15;99006.47;4915739;29;20040;-74
2020/12/09 00:59:51;;;;;;;3.97;1.83;;;;;;;5.41;70.16;99061.63;4917312;29;20053;-75
2020/12/09 01:02:22;;;;;;;4.18;2.15;;;;;;;5.64;69.70;99101.47;4915737;29;20044;-75
2020/12/09 01:04:51;;;;;;;4.97;2.30;;;;;;;5.58;70.08;99096.34;4915773;29;20063;-75
2020/12/09 01:07:20;;;;;;;;;;;;;;;5.46;70.38;99093.69;4921107;29;20508;-75
2020/12/09 01:09:48;;;;;;;4.18;2.33;;;;;;;4.95;70.55;99011.38;4920398;29;20389;-75
2020/12/09 01:12:16;;;;;;;5.20;2.60;;;;;;;5.15;70.33;99073.16;4920369;29;20055;-75
2020/12/09 01:14:43;;;;;;;5.90;2.92;;;;;;;5.17;71.12;99091.72;4920659;29;20081;-75
2020/12/09 01:17:11;;;;;;;6.03;3.17;;;;;;;4.88;71.82;99095.56;4920357;29;20406;-75
2020/12/09 01:19:39;;;;;;;7.43;3.55;;;;;;;4.61;72.51;99082.59;4919063;29;20051;-75
2020/12/09 01:22:08;;;;;;;7.00;3.72;;;;;;;4.56;72.97;99090.09;4919034;29;20491;-74
2020/12/09 01:24:36;;;;;;;6.27;3.17;;;;;;;3.79;73.29;98990.53;4919920;29;20053;-75
2020/12/09 01:27:04;;;;;;;7.20;3.42;;;;;;;3.74;73.66;99001.41;4919238;29;20067;-75
2020/12/09 01:29:32;;;;;;;7.60;3.13;;;;;;;3.88;73.33;99020.13;4920195;29;20494;-75
2020/12/09 01:32:00;;;;;;;7.43;3.70;;;;;;;4.23;73.22;99093.84;4919122;29;20143;-75
2020/12/09 01:34:28;;;;;;;8.27;3.83;;;;;;;4.21;73.87;99090.44;4903438;29;20059;-75
2020/12/09 01:36:56;;;;;;;7.75;3.70;;;;;;;3.96;74.07;99057.25;4919985;29;20055;-75
2020/12/09 01:39:26;;;;;;;7.27;3.40;;;;;;;3.75;73.78;99034.22;4919214;29;20398;-75
2020/12/09 01:41:53;;;;;;;6.95;3.42;;;;;;;3.70;74.02;99043.38;4903492;29;20062;-75
2020/12/09 01:44:22;;;;;;;7.25;3.25;;;;;;;3.63;74.73;99023.91;4919811;29;20210;-76
2020/12/09 01:46:50;;;;;;;8.00;3.15;;;;;;;3.56;74.27;99022.13;4919764;29;20494;-76
2020/12/09 01:49:18;;;;;;;6.13;3.13;;;;;;;3.51;74.34;99020.34;4919625;29;20048;-76
2020/12/09 01:51:47;;;;;;;7.67;4.13;;;;;;;3.87;75.29;99078.97;4918528;29;20051;-76
2020/12/09 01:54:15;;;;;;;7.38;3.53;;;;;;;3.67;74.40;99050.06;4918683;29;20048;-77
2020/12/09 01:56:44;;;;;;;9.05;3.38;;;;;;;2.90;75.08;98920.16;4918818;29;20122;-76
2020/12/09 01:59:13;;;;;;;7.38;3.20;;;;;;;3.75;75.47;99064.50;4919627;29;20048;-76
2020/12/09 02:01:41;;;;;;;7.68;3.85;;;;;;;3.64;75.42;99071.03;4918251;29;20515;-75
2020/12/09 02:04:09;;;;;;;6.38;3.13;;;;;;;3.57;75.44;99059.16;4918363;29;20040;-75
2020/12/09 02:06:37;;;;;;;7.22;4.53;;;;;;;3.12;75.38;98972.66;4918482;29;20052;-75
2020/12/09 02:09:05;;;;;;;6.10;3.47;;;;;;;3.36;75.63;99028.50;4902782;29;20044;-75
2020/12/09 02:11:33;;;;;;;9.05;3.25;;;;;;;2.69;75.47;98939.13;4918110;29;20123;-75
2020/12/09 02:14:02;;;;;;;6.28;3.45;;;;;;;3.41;75.34;99061.38;4919317;29;20047;-75
2020/12/09 02:16:29;;;;;;;6.97;3.47;;;;;;;3.53;75.57;99076.75;4917451;29;20048;-75
2020/12/09 02:18:59;;;;;;;;;;;;;;;3.64;75.90;99081.13;4902677;29;20477;-75
2020/12/09 02:21:26;;;;;;;5.97;3.00;;;;;;;3.39;76.03;99043.69;4918025;29;19966;-75
2020/12/09 02:23:55;;;;;;;6.15;2.88;;;;;;;3.60;75.20;99078.53;4919066;29;20495;-75
2020/12/09 02:26:23;;;;;;;7.18;2.90;;;;;;;2.86;75.50;98959.56;4919061;29;20451;-75
2020/12/09 02:28:51;;;;;;;5.45;3.03;;;;;;;3.58;76.07;99075.13;4919036;29;20040;-75
2020/12/09 02:31:19;;;;;;;6.75;3.10;;;;;;;3.47;75.48;99062.34;4919043;29;20047;-75
2020/12/09 02:33:48;;;;;;;6.78;3.08;;;;;;;3.28;75.89;99045.19;4918883;29;20052;-77
2020/12/09 02:36:16;;;;;;;7.32;2.72;;;;;;;3.41;75.69;99064.75;4918070;29;20048;-76
2020/12/09 02:38:43;;;;;;;5.00;2.70;;;;;;;3.57;75.85;99096.13;4918741;29;20507;-76
2020/12/09 02:41:12;;;;;;;5.90;2.75;;;;;;;3.62;75.96;99092.88;4917753;29;20068;-76
2020/12/09 02:43:41;;;;;;;;;;;;;;;3.58;75.47;99086.06;4918202;29;20048;-76
2020/12/09 02:46:08;;;;;;;6.40;2.78;;;;;;;3.44;75.75;99079.06;4918804;29;19926;-76
2020/12/09 02:48:36;;;;;;;7.60;2.72;;;;;;;3.07;75.96;99014.56;4918546;29;20052;-76
2020/12/09 02:51:05;;;;;;;4.90;2.38;;;;;;;3.36;76.13;99053.72;4918702;29;20047;-76
2020/12/09 02:53:33;;;;;;;5.28;2.72;;;;;;;3.62;75.88;99062.59;4918548;29;20040;-77
2020/12/09 02:56:01;;;;;;;5.15;2.63;;;;;;;3.36;75.55;99006.66;4918574;29;20454;-76
2020/12/09 02:58:30;;;;;;;4.95;2.67;;;;;;;3.58;75.80;99054.94;4918528;29;20103;-76
2020/12/09 03:00:57;;;;;;;5.20;2.55;;;;;;;3.64;76.33;99078.63;4917492;29;20103;-76
2020/12/09 03:03:25;;;;;;;4.13;2.13;;;;;;;3.71;76.40;99093.03;4917329;29;20562;-76
2020/12/09 03:05:54;;;;;;;4.97;2.17;;;;;;;3.63;75.40;99069.34;4918293;29;20040;-76
2020/12/09 03:08:22;;;;;;;3.38;1.88;;;;;;;3.28;75.81;98999.81;4918318;29;20086;-76
2020/12/09 03:10:49;;;;;;;4.88;2.40;;;;;;;3.71;75.27;99085.47;4917299;29;20052;-76
2020/12/09 03:13:20;;;;;;;5.45;2.75;;;;;;;3.35;75.65;99017.59;4918346;29;20131;-76
2020/12/09 03:15:49;;;;;;;4.15;2.03;;;;;;;3.05;75.59;98970.81;4918085;29;20107;-76
2020/12/09 03:18:17;;;;;;;5.57;2.67;;;;;;;3.62;75.89;99076.88;4917048;29;20052;-76
2020/12/09 03:20:45;;;;;;;5.15;2.60;;;;;;;3.60;75.72;99069.28;4916846;29;20046;-77
2020/12/09 03:23:14;;;;;;;6.30;2.53;;;;;;;3.61;75.94;99076.03;4917967;29;20139;-77
2020/12/09 03:25:41;;;;;;;4.72;2.60;;;;;;;3.66;75.46;99074.44;4918148;29;20040;-75
2020/12/09 03:28:09;;;;;;;5.88;2.60;;;;;;;3.65;75.69;99065.16;4916650;29;20052;-75
2020/12/09 03:30:37;;;;;;;5.32;2.58;;;;;;;3.60;75.96;99059.19;4900909;29;20459;-75
2020/12/09 03:33:06;;;;;;;5.05;2.70;;;;;;;3.50;76.20;99052.31;4901152;29;20079;-77
2020/12/09 03:35:34;;;;;;;6.70;2.92;;;;;;;3.52;76.10;99045.63;4870711;29;20048;-77
2020/12/09 03:38:01;;;;;;;3.67;2.05;;;;;;;3.61;75.66;99050.81;4917740;29;20044;-76
2020/12/09 03:40:29;;;;;;;6.57;2.75;;;;;;;3.58;76.45;99045.69;4917810;29;20499;-76
2020/12/09 03:42:57;;;;;;;4.90;2.67;;;;;;;2.82;76.31;98916.66;4917681;29;20044;-76
2020/12/09 03:45:25;;;;;;;6.32;3.33;;;;;;;2.48;75.84;98870.72;4916922;29;20452;-76
2020/12/09 03:47:52;;;;;;;6.13;2.70;;;;;;;3.60;76.56;99048.28;4917591;29;20044;-76
2020/12/09 03:50:21;;;;;;;6.30;2.92;;;;;;;3.49;76.10;99040.50;4917932;29;20063;-77
2020/12/09 03:52:49;;;;;;;5.57;2.80;;;;;;;3.57;75.54;99049.06;4917464;29;20052;-76
2020/12/09 03:55:17;;;;;;;4.07;2.15;;;;;;;3.54;76.34;99048.16;4917570;29;20108;-76
2020/12/09 03:57:45;;;;;;;5.60;2.55;;;;;;;2.79;76.17;98937.59;4900796;29;20040;-76
2020/12/09 04:00:13;;;;;;;5.30;2.63;;;;;;;2.60;76.41;98886.06;4917777;29;20048;-75
2020/12/09 04:02:41;;;;;;;4.82;2.40;;;;;;;3.51;76.27;99043.91;4916498;29;20047;-75
2020/12/09 04:05:10;;;;;;;4.85;2.30;;;;;;;3.43;75.78;99019.38;4916240;29;20044;-75
2020/12/09 04:07:39;;;;;;;5.85;2.63;;;;;;;3.55;75.78;99043.13;4916314;29;20156;-75
2020/12/09 04:10:07;;;;;;;5.00;2.40;;;;;;;3.41;75.98;99023.56;4900657;29;20138;-76
2020/12/09 04:12:35;;;;;;;4.95;2.50;;;;;;;3.31;76.32;98989.78;4916317;29;20054;-77
2020/12/09 04:15:03;;;;;;;4.22;2.35;;;;;;;3.10;76.02;98936.44;4917273;29;20052;-76
2020/12/09 04:17:31;;;;;;;5.07;2.33;;;;;;;3.73;76.07;99040.91;4916492;29;20103;-77
2020/12/09 04:19:59;;;;;;;5.20;2.60;;;;;;;3.71;76.31;99037.53;4916315;29;20048;-76
2020/12/09 04:22:27;;;;;;;4.50;2.38;;;;;;;3.79;75.64;99020.81;4916208;29;20082;-76
2020/12/09 04:24:55;;;;;;;4.82;2.42;;;;;;;3.91;75.67;99031.09;4915735;29;20048;-75
2020/12/09 04:27:24;;;;;;;4.45;2.22;;;;;;;3.71;75.97;98997.16;4916223;29;20087;-75
2020/12/09 04:29:53;;;;;;;3.35;1.80;;;;;;;3.72;75.49;98990.44;4917191;29;20123;-75
2020/12/09 04:32:21;;;;;;;4.88;2.50;;;;;;;4.03;75.15;99030.44;4917188;29;20045;-75
2020/12/09 04:34:49;;;;;;;5.60;2.65;;;;;;;4.08;75.19;99024.63;4917187;29;20438;-75
2020/12/09 04:37:17;;;;;;;4.93;2.38;;;;;;;4.11;75.63;99028.00;4916993;29;20446;-75
2020/12/09 04:39:46;;;;;;;4.55;2.50;;;;;;;4.00;75.13;99023.69;4916384;29;20040;-75
2020/12/09 04:42:18;;;;;;;4.50;2.22;;;;;;;3.95;74.99;99000.03;4919566;29;20048;-75
2020/12/09 04:44:46;;;;;;;8.00;2.50;;;;;;;3.95;74.59;98952.09;4919895;29;20056;-75
2020/12/09 04:47:17;;;;;;;6.00;1.98;;;;;;;4.23;74.00;98972.63;4920797;29;20072;-75
2020/12/09 04:49:47;;;;;;;3.30;1.80;;;;;;;4.70;73.81;99011.97;4920878;29;20454;-75
2020/12/09 04:52:27;;;;;;;3.92;1.85;;;;;;;4.77;73.54;99022.97;4919801;29;20056;-75
2020/12/09 04:55:02;;;;;;;4.15;2.05;;;;;;;4.29;72.83;98947.47;4919795;29;20127;-75
2020/12/09 04:57:42;;;;;;;5.38;1.90;;;;;;;4.73;73.52;99027.13;4904025;29;20566;-75
2020/12/09 05:00:10;;;;;;;3.45;1.80;;;;;;;4.68;73.27;99023.72;4920762;29;20398;-75
2020/12/09 05:02:44;;;;;;;3.97;2.10;;;;;;;4.72;73.28;99010.31;4920820;29;20487;-75
2020/12/09 05:05:13;;;;;;;5.72;2.20;;;;;;;4.86;72.50;99008.78;4920777;29;20127;-75
2020/12/09 05:07:42;;;;;;;4.28;1.80;;;;;;;4.64;72.02;98946.19;4904108;29;20048;-75
2020/12/09 05:10:10;;;;;;;4.78;2.30;;;;;;;5.13;71.96;99010.75;4920480;29;20040;-76
2020/12/09 05:12:42;;;;;;;4.35;2.03;;;;;;;5.27;71.33;99012.56;4920387;29;20044;-76
2020/12/09 05:15:15;;;;;;;3.70;1.83;;;;;;;4.66;71.01;98889.78;4920573;29;20103;-75
2020/12/09 05:18:04;;;;;;;3.10;1.55;;;;;;;5.43;71.14;99018.59;4920617;29;20060;-75
2020/12/09 05:20:34;;;;;;;3.70;1.30;;;;;;;5.46;70.90;99023.69;4917616;29;20052;-75
2020/12/09 05:23:02;;;;;;;4.57;1.77;;;;;;;5.46;70.79;99017.78;4919304;29;20051;-77
2020/12/09 05:25:30;;;;;;;4.50;2.30;;;;;;;5.44;70.56;99005.13;4920022;29;20056;-75
2020/12/09 05:27:59;;;;;;;4.47;2.38;;;;;;;5.27;70.52;98977.16;4919306;29;20104;-75
2020/12/09 05:30:38;;;;;;;5.22;2.45;;;;;;;5.50;70.48;99016.97;4920257;29;20461;-75
2020/12/09 05:33:07;;;;;;;4.47;2.53;;;;;;;5.43;69.58;98973.06;4919248;29;20052;-75
2020/12/09 05:35:35;;;;;;;4.05;2.15;;;;;;;4.89;70.03;98900.09;4920067;29;20044;-75
2020/12/09 05:38:10;;;;;;;3.83;1.90;;;;;;;5.65;70.05;99009.50;4918883;29;20055;-75
2020/12/09 05:40:40;;;;;;;3.92;2.10;;;;;;;5.06;70.06;98928.88;4920256;29;20044;-75
2020/12/09 05:43:10;;;;;;;4.50;2.08;;;;;;;5.14;69.88;98929.81;4920075;29;20124;-75
2020/12/09 05:45:38;;;;;;;3.60;2.10;;;;;;;5.22;69.84;98973.75;4919821;29;20044;-75
2020/12/09 05:48:17;;;;;;;4.03;2.10;;;;;;;5.43;70.29;99024.53;4919705;29;20048;-75
2020/12/09 05:50:46;;;;;;;3.58;1.90;;;;;;;4.80;70.46;98937.09;4902745;29;20044;-75
2020/12/09 05:53:15;;;;;;;5.70;2.38;;;;;;;5.01;71.48;99003.88;4919886;29;20134;-75
2020/12/09 05:55:44;;;;;;;4.85;2.70;;;;;;;4.87;71.67;99034.91;4919609;29;20055;-76
2020/12/09 05:58:26;;;;;;;4.28;2.90;;;;;;;4.10;71.88;98945.53;4919477;29;20044;-77
2020/12/09 06:01:06;;;;;;;5.38;2.95;;;;;;;4.43;72.81;99031.81;4919623;29;20048;-76
2020/12/09 06:03:34;;;;;;;4.93;2.60;;;;;;;4.37;72.69;99036.78;4919513;29;20058;-76
2020/12/09 06:06:09;;;;;;;5.45;2.85;;;;;;;4.35;73.58;99035.91;4919487;29;20565;-76
2020/12/09 06:08:38;;;;;;;5.05;2.20;;;;;;;3.59;73.48;98896.06;4918468;29;20150;-77
2020/12/09 06:11:06;;;;;;;3.72;2.17;;;;;;;4.57;73.75;99035.38;4919434;29;20048;-77
2020/12/09 06:13:36;;;;;;;4.40;2.10;;;;;;;4.84;73.14;99035.72;4919221;29;20044;-77
2020/12/09 06:16:06;;;;;;;3.92;2.00;;;;;;;4.63;72.84;98987.47;4919315;29;20570;-76
2020/12/09 06:18:35;;;;;;;4.25;2.05;;;;;;;4.75;71.98;98980.00;4919152;29;20048;-77
2020/12/09 06:21:03;;;;;;;4.75;2.38;;;;;;;4.67;72.43;98974.88;4919223;29;20092;-77
2020/12/09 06:23:31;;;;;;;3.53;1.73;;;;;;;4.32;72.30;98922.25;4918706;29;20510;-76
2020/12/09 06:26:00;;;;;;;3.53;1.58;;;;;;;5.16;72.05;99044.47;4919206;29;20549;-76
2020/12/09 06:28:28;;;;;;;3.67;1.77;;;;;;;5.27;71.92;99047.97;4919100;29;20574;-76
2020/12/09 06:30:58;;;;;;;4.55;1.90;;;;;;;5.29;71.64;99046.31;4919199;29;20052;-76
2020/12/09 06:33:31;;;;;;;3.95;1.88;;;;;;;5.13;71.65;99044.47;4917871;29;20059;-76
2020/12/09 06:36:10;;;;;;;6.63;2.15;;;;;;;5.13;71.93;99053.72;4918916;29;20059;-75
2020/12/09 06:38:40;;;;;;;4.95;2.33;;;;;;;5.09;72.44;99057.91;4917726;29;20411;-75
2020/12/09 06:41:13;;;;;;;5.95;3.70;;;;;;;4.97;71.94;99052.69;4918877;29;20139;-75
2020/12/09 06:44:00;;;;;;;10.07;3.53;;;;;;;4.81;72.91;99049.97;4917941;29;20394;-75
2020/12/09 06:46:37;;;;;;;6.40;4.00;;;;;;;4.59;72.90;99028.66;4918657;29;20044;-75
2020/12/09 06:49:05;;;;;;;14.95;5.72;;;;;;;3.88;73.09;98935.16;4918732;29;20110;-75
2020/12/09 06:51:36;;;;;;;16.30;7.28;;;;;;;4.11;73.54;98974.97;4901889;29;20108;-75
2020/12/09 06:54:11;;;;;;;15.18;6.30;;;;;;;4.18;73.95;98989.38;4918720;29;20075;-74
2020/12/09 06:56:39;;;;;;;15.75;8.77;;;;;;;3.91;73.06;98942.75;4918534;29;20044;-75
2020/12/09 06:59:23;;;;;;;16.85;8.10;;;;;;;4.51;73.90;99047.94;4918527;29;20048;-75
2020/12/09 07:02:10;;;;;;;9.73;5.13;;;;;;;4.52;73.63;99039.50;4901541;29;20044;-75
2020/12/09 07:05:01;;;;;;;6.60;2.92;;;;;;;4.55;73.55;99040.41;4917808;29;20059;-76
2020/12/09 07:07:32;;;;;;;5.50;2.47;;;;;;;4.68;73.91;99014.44;4918304;29;20055;-76
2020/12/09 07:10:01;;;;;;;6.13;2.13;;;;;;;5.03;72.76;99039.28;4918309;29;20048;-76
2020/12/09 07:12:29;;;;;;;4.00;1.77;;;;;;;4.43;72.35;98905.53;4917290;29;20448;-76
2020/12/09 07:14:58;;;;;;;4.40;1.90;;;;;;;4.99;71.77;98994.59;4917299;29;20058;-78
2020/12/09 07:17:27;;;;;;;5.25;2.17;;;;;;;4.86;71.90;98968.31;4918050;29;20040;-77
2020/12/09 07:19:56;;;;;;;4.70;2.38;;;;;;;4.90;71.57;98959.94;4918737;29;20059;-77
2020/12/09 07:22:24;;;;;;;5.15;2.30;;;;;;;5.31;71.78;99034.53;4918360;29;20044;-77
2020/12/09 07:24:53;;;;;;;5.78;2.08;;;;;;;5.40;71.15;99037.13;4916574;29;20055;-77
2020/12/09 07:27:23;;;;;;;4.90;2.13;;;;;;;5.36;71.17;99030.34;4901447;29;20131;-77
2020/12/09 07:29:54;;;;;;;4.63;2.15;;;;;;;5.28;70.85;99008.34;4918358;29;20044;-75
2020/12/09 07:32:22;;;;;;;4.78;2.22;;;;;;;5.15;70.85;99002.34;4917348;29;20070;-75
2020/12/09 07:34:52;;;;;;;4.75;2.35;;;;;;;5.33;71.42;99045.50;4900904;29;20075;-77
2020/12/09 07:37:20;;;;;;;;;;;;;;;5.38;71.44;99046.41;4918257;29;20052;-76
2020/12/09 07:39:50;;;;;;;6.55;2.30;;;;;;;5.32;71.40;99030.31;4917683;29;20340;-77
2020/12/09 07:42:18;;;;;;;4.30;1.80;;;;;;;5.11;70.99;98980.34;4917009;29;20068;-77
2020/12/09 07:44:46;;;;;;;3.35;1.73;;;;;;;5.57;70.81;99051.63;4900938;29;20047;-77
2020/12/09 07:47:16;;;;;;;3.50;1.80;;;;;;;5.52;70.78;99053.28;4917707;29;20131;-77
2020/12/09 07:49:52;;;;;;;4.30;1.98;;;;;;;5.52;71.24;99055.81;4916133;29;20123;-77
2020/12/09 07:52:25;;;;;;;3.97;2.03;;;;;;;4.88;71.61;98954.00;4917717;29;20059;-77
2020/12/09 07:54:57;;;;;;;4.18;2.40;;;;;;;5.55;71.39;99073.53;4917635;29;20487;-77
2020/12/09 07:57:30;;;;;;;4.22;2.00;;;;;;;5.63;70.62;99071.94;4916462;29;20055;-77
2020/12/09 07:59:59;;;;;;;4.30;2.00;;;;;;;5.68;70.60;99070.28;4916264;29;20059;-77
2020/12/09 08:02:28;;;;;;;4.22;2.00;;;;;;;5.73;70.39;99068.66;4917310;29;20040;-77
2020/12/09 08:05:10;;;;;;;4.70;2.45;;;;;;;5.78;70.32;99069.53;4916288;29;20048;-77
2020/12/09 08:07:48;;;;;;;4.20;1.90;;;;;;;5.26;70.28;98970.38;4916286;29;20521;-77
2020/12/09 08:10:31;;;;;;;4.43;2.30;;;;;;;5.81;69.89;99070.41;4917410;29;20055;-77
2020/12/09 08:13:00;;;;;;;4.15;2.15;;;;;;;5.77;69.89;99075.44;4917493;29;20287;-77
2020/12/09 08:15:28;;;;;;;5.90;2.70;;;;;;;5.51;69.94;99026.28;4917315;29;20104;-77
2020/12/09 08:17:57;;;;;;;3.80;2.00;;;;;;;5.84;69.90;99061.97;4916327;29;20051;-77
2020/12/09 08:20:26;;;;;;;7.32;2.55;;;;;;;5.84;69.88;99057.81;4917186;29;20503;-77
2020/12/09 08:22:58;;;;;;;4.18;2.13;;;;;;;5.91;69.86;99053.63;4916336;29;20135;-77
2020/12/09 08:25:28;;;;;;;5.70;2.45;;;;;;;6.03;69.92;99043.59;4917071;29;20056;-77
2020/12/09 08:27:57;;;;;;;3.17;1.48;;;;;;;6.13;69.57;99050.41;4900713;29;20048;-78
2020/12/09 08:30:25;;;;;;;2.85;1.73;;;;;;;5.77;69.17;98989.34;4917259;29;20052;-77
2020/12/09 08:33:17;;;;;;;4.45;2.20;;;;;;;6.41;68.60;99052.28;4917130;29;20048;-77
2020/12/09 08:35:49;;;;;;;4.30;2.20;;;;;;;6.23;67.71;98986.31;4913879;29;20040;-75
2020/12/09 08:38:28;;;;;;;4.07;2.30;;;;;;;6.82;66.97;99051.63;4917110;29;20052;-76
2020/12/09 08:41:07;;;;;;;5.35;2.63;;;;;;;6.91;66.80;99055.03;4916092;29;20064;-75
2020/12/09 08:43:35;;;;;;;5.30;2.10;;;;;;;7.06;66.49;99059.31;4917001;29;20048;-75
2020/12/09 08:46:04;;;;;;;5.28;2.47;;;;;;;7.17;65.31;99057.69;4916010;29;20127;-76
2020/12/09 08:48:33;;;;;;;5.90;1.90;;;;;;;7.30;65.34;99059.38;4916915;29;20048;-75
2020/12/09 08:51:04;;;;;;;4.05;1.90;;;;;;;7.34;64.89;99040.81;4917026;29;20127;-76
2020/12/09 08:53:32;;;;;;;3.65;1.60;;;;;;;7.57;64.19;99064.53;4916950;29;20048;-76
2020/12/09 08:56:00;;;;;;;3.30;1.63;;;;;;;7.72;64.01;99056.94;4916972;29;20494;-76
2020/12/09 08:58:53;;;;;;;3.75;1.98;;;;;;;7.81;63.71;99056.91;4891649;29;20082;-76
2020/12/09 09:01:21;;;;;;;4.88;2.05;;;;;;;7.73;63.94;99050.13;4915836;29;20048;-75
2020/12/09 09:03:54;;;;;;;5.82;1.50;;;;;;;7.54;63.50;99026.41;4916970;29;20064;-75
2020/12/09 09:06:25;;;;;;;4.22;2.08;;;;;;;7.89;63.10;99031.53;4916950;29;20059;-75
2020/12/09 09:08:53;;;;;;;3.15;1.73;;;;;;;8.27;62.23;99044.19;4915639;29;20108;-77
2020/12/09 09:11:22;;;;;;;3.25;1.52;;;;;;;8.30;61.55;98994.19;4916723;29;20045;-77
2020/12/09 09:13:50;;;;;;;5.22;1.92;;;;;;;8.48;62.00;98998.38;4917205;29;20062;-76
2020/12/09 09:16:21;;;;;;;4.03;1.80;;;;;;;8.71;60.63;99055.09;4916830;29;20111;-75
2020/12/09 09:18:49;;;;;;;4.55;1.90;;;;;;;8.69;61.05;99044.94;4917165;29;20075;-76
2020/12/09 09:21:17;;;;;;;3.17;1.65;;;;;;;8.62;60.81;99011.88;4915452;29;20055;-77
2020/12/09 09:23:46;;;;;;;2.88;1.45;;;;;;;8.82;60.60;99035.56;4899963;29;20131;-76
2020/12/09 09:26:41;;;;;;;3.63;1.50;;;;;;;8.81;60.02;99028.75;4917884;29;20048;-75
2020/12/09 09:29:13;;;;;;;3.58;1.50;;;;;;;9.10;60.65;99037.09;4919837;29;20517;-75
2020/12/09 09:31:41;;;;;;;3.95;1.60;;;;;;;9.11;60.68;99043.91;4918712;29;20048;-75
2020/12/09 09:34:08;;;;;;;3.63;1.75;;;;;;;9.03;59.09;99034.59;4920129;29;20523;-75
2020/12/09 09:36:38;;;;;;;6.10;2.67;;;;;;;8.68;59.00;98968.63;4919943;29;20107;-75
2020/12/09 09:39:06;;;;;;;6.78;3.03;;;;;;;8.85;60.86;99002.47;4920139;29;20499;-76
2020/12/09 09:44:30;;;;;;;7.15;3.70;;;;;;;8.96;60.39;99041.44;4901049;29;20135;-77
2020/12/09 09:46:58;;;;;;;7.03;3.60;;;;;;;8.87;60.99;99002.47;4899788;29;20462;-74
2020/12/09 09:49:52;;;;;;;8.93;4.35;;;;;;;8.95;61.55;99032.09;4900945;29;20049;-75
2020/12/09 09:52:49;;;;;;;6.40;3.38;;;;;;;8.80;60.89;99016.91;4884317;29;20059;-77
2020/12/09 09:55:18;;;;;;;6.10;2.80;;;;;;;8.81;60.59;99031.31;4917408;29;20473;-77
2020/12/09 09:57:51;;;;;;;6.32;2.65;;;;;;;8.79;60.38;99015.22;4916918;29;20565;-75
2020/12/09 10:00:19;;;;;;;8.48;2.35;;;;;;;8.81;59.97;99017.72;4902991;29;20058;-77
2020/12/09 10:02:47;;;;;;;3.95;1.90;;;;;;;8.88;60.21;99012.63;4918863;29;20064;-77
2020/12/09 10:05:17;;;;;;;5.20;2.65;;;;;;;8.92;59.71;99006.69;4919611;29;20087;-75
2020/12/09 10:07:45;;;;;;;3.75;1.85;;;;;;;8.58;59.17;98954.25;4918209;29;20064;-76
2020/12/09 10:10:13;;;;;;;3.78;2.08;;;;;;;8.84;59.04;99008.41;4919318;29;20048;-77
2020/12/09 10:13:07;;;;;;;4.28;2.33;;;;;;;8.80;59.45;99001.66;4919367;29;20047;-76
2020/12/09 10:15:38;;;;;;;5.50;2.33;;;;;;;8.72;60.13;98988.97;4918585;29;20067;-76
2020/12/09 10:18:06;;;;;;;7.75;3.05;;;;;;;8.77;59.59;99006.75;4918099;29;20048;-75
2020/12/09 10:20:58;;;;;;;10.93;3.80;;;;;;;8.65;60.98;98994.94;4919534;29;20133;-77
2020/12/09 10:23:31;;;;;;;7.80;3.33;;;;;;;8.59;61.71;98997.47;4916846;29;20100;-76
2020/12/09 10:25:59;;;;;;;7.75;3.58;;;;;;;8.55;61.33;99000.91;4919473;29;20518;-77
2020/12/09 10:28:31;;;;;;;6.70;3.55;;;;;;;8.54;61.76;98995.81;4919194;29;20056;-77
2020/12/09 10:31:04;;;;;;;7.75;3.25;;;;;;;8.16;61.06;98918.81;4919019;29;20099;-77
2020/12/09 10:33:32;;;;;;;5.93;2.88;;;;;;;8.60;60.30;98988.16;4919005;29;20043;-74
2020/12/09 10:36:25;;;;;;;5.28;2.78;;;;;;;8.70;60.78;98990.66;4919085;29;20056;-77
2020/12/09 10:39:22;;;;;;;7.03;2.97;;;;;;;8.78;60.19;98977.91;4917905;29;20044;-77
2020/12/09 10:41:50;;;;;;;5.70;2.40;;;;;;;8.13;59.80;98855.28;4918885;29;20413;-75
2020/12/09 10:44:19;;;;;;;6.18;3.33;;;;;;;8.85;59.66;98982.13;4917713;29;20048;-74
2020/12/09 10:46:49;;;;;;;5.25;2.17;;;;;;;8.75;59.98;98957.56;4917691;29;20132;-74
2020/12/09 10:49:17;;;;;;;7.35;3.25;;;;;;;8.75;60.04;98939.78;4918765;29;20044;-74
2020/12/09 10:51:45;;;;;;;4.40;1.90;;;;;;;9.07;59.03;98983.66;4918607;29;20037;-74
2020/12/09 10:54:21;;;;;;;3.58;1.80;;;;;;;8.95;58.36;98960.84;4918492;29;20416;-74
2020/12/09 10:56:51;;;;;;;5.33;2.10;;;;;;;9.10;57.84;98975.16;4918522;29;20510;-75
2020/12/09 10:59:20;;;;;;;4.68;2.10;;;;;;;9.04;58.48;98965.91;4886168;29;20048;-75
2020/12/09 11:01:54;;;;;;;4.53;1.98;;;;;;;9.12;57.93;98969.22;4916445;29;20051;-75
2020/12/09 11:04:23;;;;;;;5.20;2.28;;;;;;;8.77;58.78;98910.06;4918475;29;20048;-77
2020/12/09 11:06:51;;;;;;;2.83;1.50;;;;;;;8.62;57.81;98874.53;4917330;29;20415;-75
2020/12/09 11:09:24;;;;;;;4.85;2.08;;;;;;;9.11;58.02;98962.44;4918458;29;20048;-77
2020/12/09 11:11:56;;;;;;;2.97;1.40;;;;;;;9.11;58.60;98957.38;4918203;29;20067;-76
2020/12/09 11:14:25;;;;;;;3.17;1.48;;;;;;;8.88;57.83;98923.56;4917418;29;20036;-74
2020/12/09 11:16:56;;;;;;;3.28;1.50;;;;;;;9.05;58.10;98939.56;4918154;29;20058;-74
2020/12/09 11:19:24;;;;;;;3.63;1.40;;;;;;;9.11;57.98;98937.00;4917028;29;20104;-75
2020/12/09 11:21:55;;;;;;;3.88;1.50;;;;;;;9.13;57.65;98940.38;4918087;29;20048;-75
2020/12/09 11:24:25;;;;;;;3.53;1.40;;;;;;;9.05;57.65;98931.94;4918013;29;20052;-75
2020/12/09 11:27:18;;;;;;;3.50;1.50;;;;;;;9.12;57.59;98938.66;4918068;29;20119;-76
2020/12/09 11:29:52;;;;;;;3.45;1.30;;;;;;;9.05;57.59;98924.31;4902142;29;20155;-75
2020/12/09 11:32:20;;;;;;;3.30;1.70;;;;;;;8.81;58.27;98886.28;4917796;29;20071;-75
2020/12/09 11:34:49;;;;;;;4.07;1.23;;;;;;;9.03;58.19;98923.47;4917967;29;20287;-75
2020/12/09 11:37:17;;;;;;;3.90;1.70;;;;;;;8.97;58.27;98908.25;4917794;29;20044;-74
2020/12/09 11:39:45;;;;;;;4.05;1.75;;;;;;;9.15;58.41;98923.38;4917898;29;20060;-74
2020/12/09 11:42:14;;;;;;;3.42;1.67;;;;;;;9.17;58.85;98931.84;4917803;29;20044;-76
2020/12/09 11:44:43;;;;;;;7.18;2.45;;;;;;;9.18;58.44;98927.59;4916516;29;20060;-76
2020/12/09 11:47:13;;;;;;;3.57;1.60;;;;;;;9.14;57.86;98919.13;4898368;29;20040;-77
2020/12/09 11:50:06;;;;;;;3.38;1.58;;;;;;;9.19;57.59;98924.22;4916198;29;20056;-76
2020/12/09 11:52:36;;;;;;;;;;;;;;;9.21;58.33;98920.78;4901589;29;20040;-75
2020/12/09 11:55:05;;;;;;;4.72;2.55;;;;;;;8.94;58.10;98872.66;4901271;29;19930;-76
2020/12/09 11:57:32;;;;;;;3.70;1.65;;;;;;;9.25;57.95;98914.81;4917873;29;20048;-76
2020/12/09 12:00:28;;;;;;;5.03;2.60;;;;;;;9.16;58.43;98894.53;4917563;29;20541;-74
2020/12/09 12:03:00;;;;;;;3.65;1.67;;;;;;;9.24;57.87;98905.50;4916732;29;20062;-74
2020/12/09 12:05:57;;;;;;;3.42;1.70;;;;;;;8.83;57.99;98833.69;4917368;29;20040;-75